sensor_id;sensor_type;location;lat;lon;timestamp;temperature;humidity
40960;DHT22;27842;52.272;8.052;2022-08-11T00:00:41;24.10;58.00
40960;DHT22;27842;52.272;8.052;2022-08-11T00:03:13;24.10;58.10
40960;DHT22;27842;52.272;8.052;2022-08-11T00:05:52;24.10;58.20
40960;DHT22;27842;52.272;8.052;2022-08-11T00:08:29;24.10;58.20
40960;DHT22;27842;52.272;8.052;2022-08-11T00:11:07;24.00;58.40
40960;DHT22;27842;52.272;8.052;2022-08-11T00:13:42;24.00;58.50
40960;DHT22;27842;52.272;8.052;2022-08-11T00:16:22;23.90;58.60
40960;DHT22;27842;52.272;8.052;2022-08-11T00:18:56;23.90;58.80
40960;DHT22;27842;52.272;8.052;2022-08-11T00:21:30;23.80;58.90
40960;DHT22;27842;52.272;8.052;2022-08-11T00:24:23;23.80;59.10
40960;DHT22;27842;52.272;8.052;2022-08-11T00:26:56;23.70;59.20
40960;DHT22;27842;52.272;8.052;2022-08-11T00:29:22;23.60;59.30
40960;DHT22;27842;52.272;8.052;2022-08-11T00:32:02;23.60;59.40
40960;DHT22;27842;52.272;8.052;2022-08-11T00:34:30;23.60;59.50
40960;DHT22;27842;52.272;8.052;2022-08-11T00:37:08;23.50;59.60
40960;DHT22;27842;52.272;8.052;2022-08-11T00:42:50;23.50;59.70
40960;DHT22;27842;52.272;8.052;2022-08-11T00:45:31;23.50;59.80
40960;DHT22;27842;52.272;8.052;2022-08-11T01:00:21;23.30;60.10
40960;DHT22;27842;52.272;8.052;2022-08-11T01:05:55;23.20;60.30
40960;DHT22;27842;52.272;8.052;2022-08-11T01:14:39;23.10;60.60
40960;DHT22;27842;52.272;8.052;2022-08-11T01:18:07;23.10;60.80
40960;DHT22;27842;52.272;8.052;2022-08-11T01:50:44;22.80;61.50
40960;DHT22;27842;52.272;8.052;2022-08-11T01:56:37;22.80;61.70
40960;DHT22;27842;52.272;8.052;2022-08-11T01:59:30;22.70;61.70
40960;DHT22;27842;52.272;8.052;2022-08-11T02:05:44;22.70;61.90
40960;DHT22;27842;52.272;8.052;2022-08-11T02:11:23;22.60;62.10
40960;DHT22;27842;52.272;8.052;2022-08-11T02:14:56;22.60;62.20
40960;DHT22;27842;52.272;8.052;2022-08-11T02:17:50;22.60;62.20
40960;DHT22;27842;52.272;8.052;2022-08-11T02:20:33;22.50;62.30
40960;DHT22;27842;52.272;8.052;2022-08-11T02:23:48;22.50;62.30
40960;DHT22;27842;52.272;8.052;2022-08-11T02:26:27;22.50;62.30
40960;DHT22;27842;52.272;8.052;2022-08-11T02:38:02;22.30;62.70
40960;DHT22;27842;52.272;8.052;2022-08-11T02:47:12;22.20;63.50
40960;DHT22;27842;52.272;8.052;2022-08-11T02:50:04;22.20;62.90
40960;DHT22;27842;52.272;8.052;2022-08-11T03:10:29;21.90;63.60
40960;DHT22;27842;52.272;8.052;2022-08-11T03:13:28;21.90;63.80
40960;DHT22;27842;52.272;8.052;2022-08-11T03:26:21;21.70;64.10
40960;DHT22;27842;52.272;8.052;2022-08-11T03:28:50;21.60;64.20
40960;DHT22;27842;52.272;8.052;2022-08-11T03:31:45;21.60;64.30
40960;DHT22;27842;52.272;8.052;2022-08-11T03:34:20;21.60;64.30
40960;DHT22;27842;52.272;8.052;2022-08-11T03:40:06;21.60;64.50
40960;DHT22;27842;52.272;8.052;2022-08-11T03:45:59;21.50;64.50
40960;DHT22;27842;52.272;8.052;2022-08-11T03:51:51;21.40;64.70
40960;DHT22;27842;52.272;8.052;2022-08-11T03:58:31;21.40;64.80
40960;DHT22;27842;52.272;8.052;2022-08-11T04:06:44;21.30;65.00
40960;DHT22;27842;52.272;8.052;2022-08-11T04:15:19;21.10;66.20
40960;DHT22;27842;52.272;8.052;2022-08-11T04:18:49;21.10;65.40
40960;DHT22;27842;52.272;8.052;2022-08-11T04:35:38;21.00;65.90
40960;DHT22;27842;52.272;8.052;2022-08-11T04:47:18;21.00;65.90
40960;DHT22;27842;52.272;8.052;2022-08-11T04:53:59;21.00;66.10
40960;DHT22;27842;52.272;8.052;2022-08-11T04:56:45;21.00;66.00
40960;DHT22;27842;52.272;8.052;2022-08-11T05:06:32;21.10;65.90
40960;DHT22;27842;52.272;8.052;2022-08-11T05:09:33;21.00;65.90
40960;DHT22;27842;52.272;8.052;2022-08-11T05:14:40;21.00;66.10
40960;DHT22;27842;52.272;8.052;2022-08-11T05:18:01;20.90;66.20
40960;DHT22;27842;52.272;8.052;2022-08-11T05:20:49;20.90;66.30
40960;DHT22;27842;52.272;8.052;2022-08-11T05:23:39;20.90;66.30
40960;DHT22;27842;52.272;8.052;2022-08-11T05:26:25;20.90;66.40
40960;DHT22;27842;52.272;8.052;2022-08-11T05:29:38;20.90;66.30
40960;DHT22;27842;52.272;8.052;2022-08-11T05:32:23;20.90;66.20
40960;DHT22;27842;52.272;8.052;2022-08-11T05:35:08;21.00;66.10
40960;DHT22;27842;52.272;8.052;2022-08-11T05:37:43;21.10;66.20
40960;DHT22;27842;52.272;8.052;2022-08-11T05:40:29;21.10;66.20
40960;DHT22;27842;52.272;8.052;2022-08-11T05:43:15;21.10;66.20
40960;DHT22;27842;52.272;8.052;2022-08-11T05:46:02;21.10;66.20
40960;DHT22;27842;52.272;8.052;2022-08-11T05:48:47;21.10;66.30
40960;DHT22;27842;52.272;8.052;2022-08-11T05:51:39;21.10;66.40
40960;DHT22;27842;52.272;8.052;2022-08-11T06:01:27;21.00;66.70
40960;DHT22;27842;52.272;8.052;2022-08-11T06:03:56;21.10;66.90
40960;DHT22;27842;52.272;8.052;2022-08-11T06:07:01;21.00;66.90
40960;DHT22;27842;52.272;8.052;2022-08-11T06:09:46;21.10;66.90
40960;DHT22;27842;52.272;8.052;2022-08-11T06:12:23;21.10;67.00
40960;DHT22;27842;52.272;8.052;2022-08-11T06:14:53;21.10;67.00
40960;DHT22;27842;52.272;8.052;2022-08-11T06:17:28;21.10;66.90
40960;DHT22;27842;52.272;8.052;2022-08-11T06:20:03;21.10;66.90
40960;DHT22;27842;52.272;8.052;2022-08-11T06:22:31;21.20;66.90
40960;DHT22;27842;52.272;8.052;2022-08-11T06:24:59;21.20;66.80
40960;DHT22;27842;52.272;8.052;2022-08-11T06:27:30;21.30;66.80
40960;DHT22;27842;52.272;8.052;2022-08-11T06:29:57;21.30;67.00
40960;DHT22;27842;52.272;8.052;2022-08-11T06:32:28;21.40;66.80
40960;DHT22;27842;52.272;8.052;2022-08-11T06:35:09;21.40;66.70
40960;DHT22;27842;52.272;8.052;2022-08-11T06:40:34;21.60;67.30
40960;DHT22;27842;52.272;8.052;2022-08-11T06:45:59;21.80;66.20
40960;DHT22;27842;52.272;8.052;2022-08-11T06:48:30;22.00;65.90
40960;DHT22;27842;52.272;8.052;2022-08-11T06:51:01;22.20;65.50
40960;DHT22;27842;52.272;8.052;2022-08-11T06:53:54;22.30;65.10
40960;DHT22;27842;52.272;8.052;2022-08-11T06:56:29;22.50;64.90
40960;DHT22;27842;52.272;8.052;2022-08-11T06:59:16;22.60;64.30
40960;DHT22;27842;52.272;8.052;2022-08-11T07:02:26;22.70;64.10
40960;DHT22;27842;52.272;8.052;2022-08-11T07:04:59;22.90;63.80
40960;DHT22;27842;52.272;8.052;2022-08-11T07:14:10;23.20;63.10
40960;DHT22;27842;52.272;8.052;2022-08-11T07:16:57;23.40;62.90
40960;DHT22;27842;52.272;8.052;2022-08-11T07:19:24;23.50;62.50
40960;DHT22;27842;52.272;8.052;2022-08-11T07:22:10;23.50;62.30
40960;DHT22;27842;52.272;8.052;2022-08-11T07:25:10;23.60;62.30
40960;DHT22;27842;52.272;8.052;2022-08-11T07:28:20;23.70;62.20
40960;DHT22;27842;52.272;8.052;2022-08-11T07:31:11;23.80;61.90
40960;DHT22;27842;52.272;8.052;2022-08-11T07:33:45;23.90;61.70
40960;DHT22;27842;52.272;8.052;2022-08-11T07:36:13;24.10;61.30
40960;DHT22;27842;52.272;8.052;2022-08-11T07:39:00;24.10;61.10
40960;DHT22;27842;52.272;8.052;2022-08-11T07:41:43;24.20;61.00
40960;DHT22;27842;52.272;8.052;2022-08-11T07:44:09;24.30;60.70
40960;DHT22;27842;52.272;8.052;2022-08-11T07:46:40;24.40;60.50
40960;DHT22;27842;52.272;8.052;2022-08-11T07:49:25;24.50;60.10
40960;DHT22;27842;52.272;8.052;2022-08-11T07:52:10;24.60;59.80
40960;DHT22;27842;52.272;8.052;2022-08-11T07:54:52;24.70;59.70
40960;DHT22;27842;52.272;8.052;2022-08-11T07:57:19;24.80;59.30
40960;DHT22;27842;52.272;8.052;2022-08-11T08:00:04;24.90;59.20
40960;DHT22;27842;52.272;8.052;2022-08-11T08:02:49;25.00;58.70
40960;DHT22;27842;52.272;8.052;2022-08-11T08:05:33;25.10;58.70
40960;DHT22;27842;52.272;8.052;2022-08-11T08:08:17;25.20;58.40
40960;DHT22;27842;52.272;8.052;2022-08-11T08:11:03;25.30;58.00
40960;DHT22;27842;52.272;8.052;2022-08-11T08:13:48;25.50;58.00
40960;DHT22;27842;52.272;8.052;2022-08-11T08:16:33;25.50;57.50
40960;DHT22;27842;52.272;8.052;2022-08-11T08:19:19;25.60;57.30
40960;DHT22;27842;52.272;8.052;2022-08-11T08:21:46;25.70;56.80
40960;DHT22;27842;52.272;8.052;2022-08-11T08:24:16;25.80;56.80
40960;DHT22;27842;52.272;8.052;2022-08-11T08:26:45;25.80;56.40
40960;DHT22;27842;52.272;8.052;2022-08-11T08:29:30;25.90;56.20
40960;DHT22;27842;52.272;8.052;2022-08-11T08:32:16;26.00;56.10
40960;DHT22;27842;52.272;8.052;2022-08-11T08:34:42;26.00;56.10
40960;DHT22;27842;52.272;8.052;2022-08-11T08:37:08;26.10;55.80
40960;DHT22;27842;52.272;8.052;2022-08-11T08:39:34;26.20;55.50
40960;DHT22;27842;52.272;8.052;2022-08-11T08:42:06;26.20;55.40
40960;DHT22;27842;52.272;8.052;2022-08-11T08:44:35;26.30;55.50
40960;DHT22;27842;52.272;8.052;2022-08-11T08:47:04;26.30;55.40
40960;DHT22;27842;52.272;8.052;2022-08-11T08:49:40;26.40;55.30
40960;DHT22;27842;52.272;8.052;2022-08-11T08:52:10;26.50;53.70
40960;DHT22;27842;52.272;8.052;2022-08-11T08:54:38;26.50;54.90
40960;DHT22;27842;52.272;8.052;2022-08-11T08:57:07;26.60;54.90
40960;DHT22;27842;52.272;8.052;2022-08-11T08:59:38;26.70;54.90
40960;DHT22;27842;52.272;8.052;2022-08-11T09:02:05;26.80;54.30
40960;DHT22;27842;52.272;8.052;2022-08-11T09:04:32;26.80;54.60
40960;DHT22;27842;52.272;8.052;2022-08-11T09:06:59;26.90;54.50
40960;DHT22;27842;52.272;8.052;2022-08-11T09:09:28;27.00;54.30
40960;DHT22;27842;52.272;8.052;2022-08-11T09:11:54;27.10;54.20
40960;DHT22;27842;52.272;8.052;2022-08-11T09:14:24;27.10;54.10
40960;DHT22;27842;52.272;8.052;2022-08-11T09:17:11;27.20;54.00
40960;DHT22;27842;52.272;8.052;2022-08-11T09:19:40;27.30;53.50
40960;DHT22;27842;52.272;8.052;2022-08-11T09:22:18;27.40;53.50
40960;DHT22;27842;52.272;8.052;2022-08-11T09:25:04;27.60;53.30
40960;DHT22;27842;52.272;8.052;2022-08-11T09:27:51;27.70;53.00
40960;DHT22;27842;52.272;8.052;2022-08-11T09:30:19;27.80;52.80
40960;DHT22;27842;52.272;8.052;2022-08-11T09:32:45;28.00;52.70
40960;DHT22;27842;52.272;8.052;2022-08-11T09:35:12;28.10;52.40
40960;DHT22;27842;52.272;8.052;2022-08-11T09:37:38;28.10;52.20
40960;DHT22;27842;52.272;8.052;2022-08-11T09:40:24;28.30;51.90
40960;DHT22;27842;52.272;8.052;2022-08-11T09:43:01;28.40;51.80
40960;DHT22;27842;52.272;8.052;2022-08-11T09:45:48;28.50;50.80
40960;DHT22;27842;52.272;8.052;2022-08-11T09:48:25;28.50;51.50
40960;DHT22;27842;52.272;8.052;2022-08-11T09:50:59;28.70;51.00
40960;DHT22;27842;52.272;8.052;2022-08-11T09:53:27;28.80;50.40
40960;DHT22;27842;52.272;8.052;2022-08-11T09:55:55;28.80;50.90
40960;DHT22;27842;52.272;8.052;2022-08-11T09:58:20;28.80;50.50
40960;DHT22;27842;52.272;8.052;2022-08-11T10:00:50;29.00;50.50
40960;DHT22;27842;52.272;8.052;2022-08-11T10:03:22;29.00;50.20
40960;DHT22;27842;52.272;8.052;2022-08-11T10:06:08;29.10;50.20
40960;DHT22;27842;52.272;8.052;2022-08-11T10:08:57;29.20;48.50
40960;DHT22;27842;52.272;8.052;2022-08-11T10:11:23;29.20;49.80
40960;DHT22;27842;52.272;8.052;2022-08-11T10:13:52;29.30;50.20
40960;DHT22;27842;52.272;8.052;2022-08-11T10:16:38;29.30;50.20
40960;DHT22;27842;52.272;8.052;2022-08-11T10:19:07;29.30;50.00
40960;DHT22;27842;52.272;8.052;2022-08-11T10:21:46;29.40;49.70
40960;DHT22;27842;52.272;8.052;2022-08-11T10:24:53;29.40;49.60
40960;DHT22;27842;52.272;8.052;2022-08-11T10:27:42;29.50;49.70
40960;DHT22;27842;52.272;8.052;2022-08-11T10:30:09;29.70;49.80
40960;DHT22;27842;52.272;8.052;2022-08-11T10:32:55;29.60;49.10
40960;DHT22;27842;52.272;8.052;2022-08-11T10:35:41;29.60;48.90
40960;DHT22;27842;52.272;8.052;2022-08-11T10:38:08;29.60;49.00
40960;DHT22;27842;52.272;8.052;2022-08-11T10:40:44;29.60;48.80
40960;DHT22;27842;52.272;8.052;2022-08-11T10:43:11;29.60;48.70
40960;DHT22;27842;52.272;8.052;2022-08-11T10:45:40;29.60;48.90
40960;DHT22;27842;52.272;8.052;2022-08-11T10:48:28;29.70;48.90
40960;DHT22;27842;52.272;8.052;2022-08-11T10:50:54;29.80;48.50
40960;DHT22;27842;52.272;8.052;2022-08-11T10:53:44;29.80;48.20
40960;DHT22;27842;52.272;8.052;2022-08-11T10:56:32;29.80;48.70
40960;DHT22;27842;52.272;8.052;2022-08-11T10:59:18;29.80;48.00
40960;DHT22;27842;52.272;8.052;2022-08-11T11:01:44;29.80;47.60
40960;DHT22;27842;52.272;8.052;2022-08-11T11:04:26;29.90;47.70
40960;DHT22;27842;52.272;8.052;2022-08-11T11:07:09;29.90;45.10
40960;DHT22;27842;52.272;8.052;2022-08-11T11:09:40;29.90;47.40
40960;DHT22;27842;52.272;8.052;2022-08-11T11:12:12;30.00;47.40
40960;DHT22;27842;52.272;8.052;2022-08-11T11:15:02;30.00;47.60
40960;DHT22;27842;52.272;8.052;2022-08-11T11:21:18;30.10;45.50
40960;DHT22;27842;52.272;8.052;2022-08-11T11:24:09;30.20;47.20
40960;DHT22;27842;52.272;8.052;2022-08-11T11:32:55;30.40;45.80
40960;DHT22;27842;52.272;8.052;2022-08-11T11:37:52;30.50;46.10
40960;DHT22;27842;52.272;8.052;2022-08-11T11:40:21;30.50;46.20
40960;DHT22;27842;52.272;8.052;2022-08-11T11:42:48;30.60;45.30
40960;DHT22;27842;52.272;8.052;2022-08-11T11:45:16;30.70;45.80
40960;DHT22;27842;52.272;8.052;2022-08-11T11:47:43;30.70;45.90
40960;DHT22;27842;52.272;8.052;2022-08-11T11:50:09;30.70;45.90
40960;DHT22;27842;52.272;8.052;2022-08-11T11:52:37;30.80;45.40
40960;DHT22;27842;52.272;8.052;2022-08-11T11:55:04;30.90;45.60
40960;DHT22;27842;52.272;8.052;2022-08-11T11:57:34;31.00;45.40
40960;DHT22;27842;52.272;8.052;2022-08-11T12:00:19;31.10;45.70
40960;DHT22;27842;52.272;8.052;2022-08-11T12:03:12;31.20;45.50
40960;DHT22;27842;52.272;8.052;2022-08-11T12:05:38;31.40;45.40
40960;DHT22;27842;52.272;8.052;2022-08-11T12:08:06;31.50;45.20
40960;DHT22;27842;52.272;8.052;2022-08-11T12:13:09;31.60;45.80
40960;DHT22;27842;52.272;8.052;2022-08-11T12:15:54;31.60;46.30
40960;DHT22;27842;52.272;8.052;2022-08-11T12:18:21;31.80;45.30
40960;DHT22;27842;52.272;8.052;2022-08-11T12:20:47;31.90;44.60
40960;DHT22;27842;52.272;8.052;2022-08-11T12:23:13;32.00;44.80
40960;DHT22;27842;52.272;8.052;2022-08-11T12:25:59;32.20;44.90
40960;DHT22;27842;52.272;8.052;2022-08-11T12:28:44;32.20;44.50
40960;DHT22;27842;52.272;8.052;2022-08-11T12:31:10;32.30;44.30
40960;DHT22;27842;52.272;8.052;2022-08-11T12:33:37;32.40;44.10
40960;DHT22;27842;52.272;8.052;2022-08-11T12:36:05;32.50;44.10
40960;DHT22;27842;52.272;8.052;2022-08-11T12:38:33;32.70;44.20
40960;DHT22;27842;52.272;8.052;2022-08-11T12:41:00;32.80;44.10
40960;DHT22;27842;52.272;8.052;2022-08-11T12:43:46;32.90;44.10
40960;DHT22;27842;52.272;8.052;2022-08-11T12:46:43;33.00;44.00
40960;DHT22;27842;52.272;8.052;2022-08-11T12:49:12;33.10;43.70
40960;DHT22;27842;52.272;8.052;2022-08-11T12:52:20;33.30;43.50
40960;DHT22;27842;52.272;8.052;2022-08-11T12:55:04;33.40;43.20
40960;DHT22;27842;52.272;8.052;2022-08-11T12:57:36;33.60;42.70
40960;DHT22;27842;52.272;8.052;2022-08-11T13:00:21;33.70;42.40
40960;DHT22;27842;52.272;8.052;2022-08-11T13:03:10;33.80;41.90
40960;DHT22;27842;52.272;8.052;2022-08-11T13:05:58;33.80;41.90
40960;DHT22;27842;52.272;8.052;2022-08-11T13:08:26;33.90;42.20
40960;DHT22;27842;52.272;8.052;2022-08-11T13:10:55;34.00;41.90
40960;DHT22;27842;52.272;8.052;2022-08-11T13:13:41;34.00;41.40
40960;DHT22;27842;52.272;8.052;2022-08-11T13:16:09;34.00;41.60
40960;DHT22;27842;52.272;8.052;2022-08-11T13:18:36;34.00;40.90
40960;DHT22;27842;52.272;8.052;2022-08-11T13:21:03;34.00;40.60
40960;DHT22;27842;52.272;8.052;2022-08-11T13:23:30;34.00;40.40
40960;DHT22;27842;52.272;8.052;2022-08-11T13:25:56;34.10;40.40
40960;DHT22;27842;52.272;8.052;2022-08-11T13:28:22;34.00;40.60
40960;DHT22;27842;52.272;8.052;2022-08-11T13:30:49;33.90;40.40
40960;DHT22;27842;52.272;8.052;2022-08-11T13:33:46;34.00;40.60
40960;DHT22;27842;52.272;8.052;2022-08-11T13:36:20;34.10;38.60
40960;DHT22;27842;52.272;8.052;2022-08-11T13:38:47;34.10;39.80
40960;DHT22;27842;52.272;8.052;2022-08-11T13:41:13;34.10;39.80
40960;DHT22;27842;52.272;8.052;2022-08-11T13:43:58;34.10;39.70
40960;DHT22;27842;52.272;8.052;2022-08-11T13:46:24;34.10;39.90
40960;DHT22;27842;52.272;8.052;2022-08-11T13:48:53;34.20;40.30
40960;DHT22;27842;52.272;8.052;2022-08-11T13:51:22;34.20;40.10
40960;DHT22;27842;52.272;8.052;2022-08-11T13:54:05;34.20;39.90
40960;DHT22;27842;52.272;8.052;2022-08-11T13:56:32;34.20;40.00
40960;DHT22;27842;52.272;8.052;2022-08-11T13:59:02;34.20;39.60
40960;DHT22;27842;52.272;8.052;2022-08-11T14:01:32;34.20;39.70
40960;DHT22;27842;52.272;8.052;2022-08-11T14:04:04;34.20;39.70
40960;DHT22;27842;52.272;8.052;2022-08-11T14:06:32;34.20;39.70
40960;DHT22;27842;52.272;8.052;2022-08-11T14:08:59;34.30;38.90
40960;DHT22;27842;52.272;8.052;2022-08-11T14:11:26;34.30;38.90
40960;DHT22;27842;52.272;8.052;2022-08-11T14:14:18;34.30;38.70
40960;DHT22;27842;52.272;8.052;2022-08-11T14:16:45;34.40;38.40
40960;DHT22;27842;52.272;8.052;2022-08-11T14:19:13;34.40;38.30
40960;DHT22;27842;52.272;8.052;2022-08-11T14:21:43;34.50;37.80
40960;DHT22;27842;52.272;8.052;2022-08-11T14:41:19;34.60;37.30
40960;DHT22;27842;52.272;8.052;2022-08-11T14:47:28;34.60;37.60
40960;DHT22;27842;52.272;8.052;2022-08-11T15:03:24;34.50;37.10
40960;DHT22;27842;52.272;8.052;2022-08-11T15:16:17;34.40;36.40
40960;DHT22;27842;52.272;8.052;2022-08-11T15:19:02;34.40;35.70
40960;DHT22;27842;52.272;8.052;2022-08-11T15:21:29;34.20;35.80
40960;DHT22;27842;52.272;8.052;2022-08-11T15:24:14;34.10;36.20
40960;DHT22;27842;52.272;8.052;2022-08-11T15:26:46;34.10;37.50
40960;DHT22;27842;52.272;8.052;2022-08-11T15:29:34;33.90;36.80
40960;DHT22;27842;52.272;8.052;2022-08-11T15:32:20;33.90;37.00
40960;DHT22;27842;52.272;8.052;2022-08-11T15:34:52;33.80;36.50
40960;DHT22;27842;52.272;8.052;2022-08-11T15:37:40;33.60;36.40
40960;DHT22;27842;52.272;8.052;2022-08-11T15:40:24;33.50;36.70
40960;DHT22;27842;52.272;8.052;2022-08-11T15:43:18;33.40;36.90
40960;DHT22;27842;52.272;8.052;2022-08-11T15:49:12;33.10;37.20
40960;DHT22;27842;52.272;8.052;2022-08-11T15:51:47;33.00;36.80
40960;DHT22;27842;52.272;8.052;2022-08-11T15:54:17;32.80;37.10
40960;DHT22;27842;52.272;8.052;2022-08-11T15:56:47;32.70;37.20
40960;DHT22;27842;52.272;8.052;2022-08-11T15:59:17;32.60;37.50
40960;DHT22;27842;52.272;8.052;2022-08-11T16:02:03;32.50;37.90
40960;DHT22;27842;52.272;8.052;2022-08-11T16:04:48;32.30;38.10
40960;DHT22;27842;52.272;8.052;2022-08-11T16:07:16;32.30;38.20
40960;DHT22;27842;52.272;8.052;2022-08-11T16:09:49;32.20;38.30
40960;DHT22;27842;52.272;8.052;2022-08-11T16:12:18;32.10;38.20
40960;DHT22;27842;52.272;8.052;2022-08-11T16:50:40;31.50;37.20
40960;DHT22;27842;52.272;8.052;2022-08-11T16:53:06;31.50;37.50
40960;DHT22;27842;52.272;8.052;2022-08-11T16:55:32;31.40;37.50
40960;DHT22;27842;52.272;8.052;2022-08-11T16:57:59;31.40;37.50
40960;DHT22;27842;52.272;8.052;2022-08-11T17:00:44;31.40;37.60
40960;DHT22;27842;52.272;8.052;2022-08-11T17:03:12;31.30;37.70
40960;DHT22;27842;52.272;8.052;2022-08-11T17:05:57;31.30;37.90
40960;DHT22;27842;52.272;8.052;2022-08-11T17:08:47;31.20;37.90
40960;DHT22;27842;52.272;8.052;2022-08-11T17:11:44;31.20;38.00
40960;DHT22;27842;52.272;8.052;2022-08-11T17:14:48;31.20;38.10
40960;DHT22;27842;52.272;8.052;2022-08-11T17:17:17;31.20;37.70
40960;DHT22;27842;52.272;8.052;2022-08-11T17:19:50;31.20;38.00
40960;DHT22;27842;52.272;8.052;2022-08-11T17:22:18;31.10;38.00
40960;DHT22;27842;52.272;8.052;2022-08-11T17:25:04;31.10;38.10
40960;DHT22;27842;52.272;8.052;2022-08-11T17:27:31;31.00;38.00
40960;DHT22;27842;52.272;8.052;2022-08-11T17:30:03;31.00;38.20
40960;DHT22;27842;52.272;8.052;2022-08-11T17:32:36;31.00;38.40
40960;DHT22;27842;52.272;8.052;2022-08-11T17:35:25;31.00;38.00
40960;DHT22;27842;52.272;8.052;2022-08-11T17:38:13;30.90;38.50
40960;DHT22;27842;52.272;8.052;2022-08-11T17:40:46;30.90;38.60
40960;DHT22;27842;52.272;8.052;2022-08-11T17:43:31;30.90;38.40
40960;DHT22;27842;52.272;8.052;2022-08-11T17:46:17;30.90;38.20
40960;DHT22;27842;52.272;8.052;2022-08-11T17:49:03;30.90;38.20
40960;DHT22;27842;52.272;8.052;2022-08-11T17:51:32;30.90;38.30
40960;DHT22;27842;52.272;8.052;2022-08-11T17:54:18;30.80;38.90
40960;DHT22;27842;52.272;8.052;2022-08-11T17:57:02;30.80;38.40
40960;DHT22;27842;52.272;8.052;2022-08-11T17:59:48;30.80;38.40
40960;DHT22;27842;52.272;8.052;2022-08-11T18:02:28;30.80;38.50
40960;DHT22;27842;52.272;8.052;2022-08-11T18:05:15;30.80;38.50
40960;DHT22;27842;52.272;8.052;2022-08-11T18:07:43;30.70;38.50
40960;DHT22;27842;52.272;8.052;2022-08-11T18:10:30;30.70;38.60
40960;DHT22;27842;52.272;8.052;2022-08-11T18:13:22;30.70;38.70
40960;DHT22;27842;52.272;8.052;2022-08-11T18:16:10;30.70;38.80
40960;DHT22;27842;52.272;8.052;2022-08-11T18:18:54;30.70;38.90
40960;DHT22;27842;52.272;8.052;2022-08-11T18:21:42;30.60;39.00
40960;DHT22;27842;52.272;8.052;2022-08-11T18:24:30;30.60;39.20
40960;DHT22;27842;52.272;8.052;2022-08-11T18:27:17;30.60;39.50
40960;DHT22;27842;52.272;8.052;2022-08-11T18:30:02;30.50;39.70
40960;DHT22;27842;52.272;8.052;2022-08-11T18:32:47;30.40;39.90
40960;DHT22;27842;52.272;8.052;2022-08-11T18:35:34;30.40;40.20
40960;DHT22;27842;52.272;8.052;2022-08-11T18:38:19;30.30;40.40
40960;DHT22;27842;52.272;8.052;2022-08-11T18:41:07;30.20;40.50
40960;DHT22;27842;52.272;8.052;2022-08-11T18:43:54;30.10;40.60
40960;DHT22;27842;52.272;8.052;2022-08-11T18:46:40;30.10;40.90
40960;DHT22;27842;52.272;8.052;2022-08-11T18:49:30;30.00;40.90
40960;DHT22;27842;52.272;8.052;2022-08-11T18:52:17;30.00;41.00
40960;DHT22;27842;52.272;8.052;2022-08-11T18:55:04;29.90;41.10
40960;DHT22;27842;52.272;8.052;2022-08-11T18:57:51;29.90;41.30
40960;DHT22;27842;52.272;8.052;2022-08-11T19:00:37;29.90;41.50
40960;DHT22;27842;52.272;8.052;2022-08-11T19:03:23;29.80;41.60
40960;DHT22;27842;52.272;8.052;2022-08-11T19:06:09;29.70;41.70
40960;DHT22;27842;52.272;8.052;2022-08-11T19:08:58;29.70;41.90
40960;DHT22;27842;52.272;8.052;2022-08-11T19:11:44;29.60;42.00
40960;DHT22;27842;52.272;8.052;2022-08-11T19:14:32;29.60;42.20
40960;DHT22;27842;52.272;8.052;2022-08-11T19:17:19;29.50;42.30
40960;DHT22;27842;52.272;8.052;2022-08-11T19:20:06;29.50;42.50
40960;DHT22;27842;52.272;8.052;2022-08-11T19:22:51;29.40;42.60
40960;DHT22;27842;52.272;8.052;2022-08-11T19:25:37;29.30;42.70
40960;DHT22;27842;52.272;8.052;2022-08-11T19:28:23;29.20;42.80
40960;DHT22;27842;52.272;8.052;2022-08-11T19:31:08;29.20;43.00
40960;DHT22;27842;52.272;8.052;2022-08-11T19:33:54;29.10;43.10
40960;DHT22;27842;52.272;8.052;2022-08-11T19:36:38;29.00;43.20
40960;DHT22;27842;52.272;8.052;2022-08-11T19:39:25;29.00;43.30
40960;DHT22;27842;52.272;8.052;2022-08-11T19:42:11;28.90;43.40
40960;DHT22;27842;52.272;8.052;2022-08-11T19:44:58;28.90;43.50
40960;DHT22;27842;52.272;8.052;2022-08-11T19:47:44;28.80;43.60
40960;DHT22;27842;52.272;8.052;2022-08-11T19:50:30;28.80;43.70
40960;DHT22;27842;52.272;8.052;2022-08-11T19:53:15;28.70;43.80
40960;DHT22;27842;52.272;8.052;2022-08-11T19:56:01;28.60;43.90
40960;DHT22;27842;52.272;8.052;2022-08-11T19:58:46;28.60;43.90
40960;DHT22;27842;52.272;8.052;2022-08-11T20:01:30;28.50;44.10
40960;DHT22;27842;52.272;8.052;2022-08-11T20:04:17;28.50;44.20
40960;DHT22;27842;52.272;8.052;2022-08-11T20:07:02;28.50;44.30
40960;DHT22;27842;52.272;8.052;2022-08-11T20:09:47;28.40;44.30
40960;DHT22;27842;52.272;8.052;2022-08-11T20:12:35;28.40;44.40
40960;DHT22;27842;52.272;8.052;2022-08-11T20:15:20;28.30;44.50
40960;DHT22;27842;52.272;8.052;2022-08-11T20:18:06;28.30;44.60
40960;DHT22;27842;52.272;8.052;2022-08-11T20:20:54;28.20;44.70
40960;DHT22;27842;52.272;8.052;2022-08-11T20:23:41;28.20;44.80
40960;DHT22;27842;52.272;8.052;2022-08-11T20:26:29;28.20;44.90
40960;DHT22;27842;52.272;8.052;2022-08-11T20:29:13;28.20;45.00
40960;DHT22;27842;52.272;8.052;2022-08-11T20:31:58;28.10;45.10
40960;DHT22;27842;52.272;8.052;2022-08-11T20:34:43;28.10;45.30
40960;DHT22;27842;52.272;8.052;2022-08-11T20:37:29;28.10;45.50
40960;DHT22;27842;52.272;8.052;2022-08-11T20:40:17;28.00;45.50
40960;DHT22;27842;52.272;8.052;2022-08-11T20:43:04;28.00;45.80
40960;DHT22;27842;52.272;8.052;2022-08-11T20:45:50;27.90;45.90
40960;DHT22;27842;52.272;8.052;2022-08-11T20:48:35;27.90;46.10
40960;DHT22;27842;52.272;8.052;2022-08-11T20:51:20;27.80;46.20
40960;DHT22;27842;52.272;8.052;2022-08-11T20:54:05;27.80;46.40
40960;DHT22;27842;52.272;8.052;2022-08-11T20:56:50;27.70;46.50
40960;DHT22;27842;52.272;8.052;2022-08-11T20:59:36;27.70;46.60
40960;DHT22;27842;52.272;8.052;2022-08-11T21:02:21;27.60;46.80
40960;DHT22;27842;52.272;8.052;2022-08-11T21:05:07;27.60;47.00
40960;DHT22;27842;52.272;8.052;2022-08-11T21:07:52;27.50;47.10
40960;DHT22;27842;52.272;8.052;2022-08-11T21:10:38;27.40;47.30
40960;DHT22;27842;52.272;8.052;2022-08-11T21:13:29;27.40;47.50
40960;DHT22;27842;52.272;8.052;2022-08-11T21:16:18;27.30;47.60
40960;DHT22;27842;52.272;8.052;2022-08-11T21:19:18;27.30;47.80
40960;DHT22;27842;52.272;8.052;2022-08-11T21:22:05;27.30;47.90
40960;DHT22;27842;52.272;8.052;2022-08-11T21:24:51;27.20;48.00
40960;DHT22;27842;52.272;8.052;2022-08-11T21:27:39;27.20;48.10
40960;DHT22;27842;52.272;8.052;2022-08-11T21:30:26;27.10;48.30
40960;DHT22;27842;52.272;8.052;2022-08-11T21:33:11;27.00;48.40
40960;DHT22;27842;52.272;8.052;2022-08-11T21:35:58;27.00;48.50